SIA203 WSSS-YBCS
Flight info
| Callsign | SIA203 |
|---|---|
| Flight time | N/A |
| Altitude | 39000 |
| Route | DODSO1A DODSO T21 OBDOS M774 KIKEM A464 IKUMA J61 PUNIT |
| Aircraft | A359/H-SDE2E3GHIJ3J4J5LM1ORWXY/LB1D1 |
Departure
| Time | 2026-05-04 23:11 |
|---|---|
| Airport | Singapore Changi Airport (WSSS) |
Arrival
| Time | N/A |
|---|---|
| Airport | Cairns International Airport (YBCS) |
| Time | Latitude | Longitude | Altitude | Speed | Heading |
|---|---|---|---|---|---|
| 2026-05-04 22:48 | 1.35178 | 103.98866 | 39 ft | 0 kts | 290° |
| 2026-05-04 22:57 | 1.35177 | 103.98869 | 39 ft | 3 kts | 290° |
| 2026-05-04 22:57 | 1.35166 | 103.98893 | 37 ft | 4 kts | 300° |
| 2026-05-04 22:57 | 1.35155 | 103.98914 | 35 ft | 3 kts | 295° |
| 2026-05-04 22:58 | 1.35147 | 103.98934 | 34 ft | 4 kts | 263° |
| 2026-05-04 22:58 | 1.35150 | 103.98946 | 35 ft | 4 kts | 211° |
| 2026-05-04 22:58 | 1.35173 | 103.98955 | 35 ft | 4 kts | 193° |
| 2026-05-04 22:58 | 1.35189 | 103.98959 | 38 ft | 2 kts | 195° |
| 2026-05-04 23:03 | 1.35185 | 103.98958 | 39 ft | 2 kts | 195° |
| 2026-05-04 23:04 | 1.35162 | 103.98952 | 39 ft | 5 kts | 192° |
| 2026-05-04 23:04 | 1.35122 | 103.98953 | 39 ft | 7 kts | 176° |
| 2026-05-04 23:04 | 1.35070 | 103.98956 | 39 ft | 9 kts | 176° |
| 2026-05-04 23:04 | 1.35004 | 103.98962 | 39 ft | 10 kts | 174° |
| 2026-05-04 23:05 | 1.34928 | 103.98978 | 39 ft | 12 kts | 159° |
| 2026-05-04 23:05 | 1.34865 | 103.99036 | 39 ft | 13 kts | 118° |
| 2026-05-04 23:05 | 1.34816 | 103.99096 | 39 ft | 11 kts | 155° |
| 2026-05-04 23:05 | 1.34739 | 103.99084 | 39 ft | 12 kts | 202° |
| 2026-05-04 23:06 | 1.34658 | 103.99052 | 39 ft | 13 kts | 201° |
| 2026-05-04 23:06 | 1.34565 | 103.99014 | 40 ft | 16 kts | 202° |
| 2026-05-04 23:06 | 1.34460 | 103.98972 | 40 ft | 17 kts | 202° |
| 2026-05-04 23:06 | 1.34345 | 103.98926 | 39 ft | 18 kts | 201° |
| 2026-05-04 23:07 | 1.34225 | 103.98871 | 39 ft | 20 kts | 205° |
| 2026-05-04 23:07 | 1.34095 | 103.98817 | 39 ft | 21 kts | 202° |
| 2026-05-04 23:07 | 1.33957 | 103.98759 | 39 ft | 22 kts | 204° |
| 2026-05-04 23:07 | 1.33813 | 103.98696 | 39 ft | 23 kts | 203° |
| 2026-05-04 23:08 | 1.33657 | 103.98645 | 38 ft | 24 kts | 189° |
| 2026-05-04 23:08 | 1.33519 | 103.98581 | 39 ft | 22 kts | 217° |
| 2026-05-04 23:08 | 1.33378 | 103.98515 | 38 ft | 23 kts | 202° |
| 2026-05-04 23:08 | 1.33230 | 103.98453 | 39 ft | 23 kts | 203° |
| 2026-05-04 23:09 | 1.33091 | 103.98395 | 39 ft | 18 kts | 204° |
| 2026-05-04 23:09 | 1.32989 | 103.98371 | 39 ft | 15 kts | 159° |
| 2026-05-04 23:09 | 1.32924 | 103.98449 | 39 ft | 15 kts | 117° |
| 2026-05-04 23:09 | 1.32958 | 103.98530 | 39 ft | 14 kts | 25° |
| 2026-05-04 23:10 | 1.33091 | 103.98584 | 39 ft | 44 kts | 22° |
| 2026-05-04 23:10 | 1.33584 | 103.98795 | 36 ft | 108 kts | 22° |
| 2026-05-04 23:10 | 1.34450 | 103.99160 | 40 ft | 161 kts | 22° |
| 2026-05-04 23:10 | 1.35170 | 103.99465 | 304 ft | 168 kts | 23° |
| 2026-05-04 23:11 | 1.36173 | 103.99908 | 1151 ft | 148 kts | 24° |
| 2026-05-04 23:11 | 1.37468 | 104.00470 | 1740 ft | 164 kts | 23° |
| 2026-05-04 23:11 | 1.38186 | 104.00770 | 1879 ft | 173 kts | 23° |
| 2026-05-04 23:11 | 1.39352 | 104.01254 | 2077 ft | 191 kts | 23° |
| 2026-05-04 23:12 | 1.40635 | 104.01786 | 2269 ft | 210 kts | 23° |
| 2026-05-04 23:12 | 1.42044 | 104.02376 | 2472 ft | 229 kts | 23° |
| 2026-05-04 23:12 | 1.43572 | 104.03018 | 2724 ft | 247 kts | 23° |
| 2026-05-04 23:12 | 1.45201 | 104.03707 | 3095 ft | 259 kts | 23° |
| 2026-05-04 23:13 | 1.46772 | 104.04622 | 3573 ft | 265 kts | 41° |
| 2026-05-04 23:13 | 1.47811 | 104.06133 | 4118 ft | 268 kts | 71° |
| 2026-05-04 23:13 | 1.47972 | 104.07983 | 4679 ft | 271 kts | 100° |
| 2026-05-04 23:13 | 1.47344 | 104.09755 | 5209 ft | 273 kts | 115° |
| 2026-05-04 23:14 | 1.46510 | 104.11477 | 5748 ft | 276 kts | 116° |
| 2026-05-04 23:14 | 1.45666 | 104.13215 | 6298 ft | 278 kts | 115° |
| 2026-05-04 23:14 | 1.44831 | 104.14965 | 6805 ft | 281 kts | 115° |
| 2026-05-04 23:14 | 1.44004 | 104.16718 | 7330 ft | 283 kts | 115° |
| 2026-05-04 23:15 | 1.43168 | 104.18506 | 7854 ft | 285 kts | 115° |
| 2026-05-04 23:15 | 1.42332 | 104.20311 | 8390 ft | 287 kts | 115° |
| 2026-05-04 23:15 | 1.41488 | 104.22130 | 8913 ft | 290 kts | 115° |
| 2026-05-04 23:15 | 1.40638 | 104.23964 | 9462 ft | 292 kts | 115° |
| 2026-05-04 23:16 | 1.39782 | 104.25814 | 9969 ft | 295 kts | 115° |
| 2026-05-04 23:16 | 1.38905 | 104.27707 | 10241 ft | 306 kts | 115° |
| 2026-05-04 23:16 | 1.37993 | 104.29678 | 10464 ft | 319 kts | 115° |
| 2026-05-04 23:16 | 1.37046 | 104.31725 | 10692 ft | 330 kts | 115° |
| 2026-05-04 23:17 | 1.36066 | 104.33844 | 10889 ft | 341 kts | 115° |
| 2026-05-04 23:17 | 1.35055 | 104.36029 | 11094 ft | 352 kts | 115° |
| 2026-05-04 23:17 | 1.34021 | 104.38281 | 11290 ft | 361 kts | 114° |
| 2026-05-04 23:17 | 1.33221 | 104.40683 | 11525 ft | 368 kts | 101° |
| 2026-05-04 23:18 | 1.33022 | 104.43238 | 11883 ft | 371 kts | 90° |
| 2026-05-04 23:18 | 1.33080 | 104.45825 | 12255 ft | 373 kts | 88° |
| 2026-05-04 23:18 | 1.33161 | 104.48424 | 12653 ft | 375 kts | 88° |
| 2026-05-04 23:18 | 1.33236 | 104.51029 | 13032 ft | 377 kts | 88° |
| 2026-05-04 23:19 | 1.33306 | 104.53651 | 13420 ft | 378 kts | 88° |
| 2026-05-04 23:19 | 1.33373 | 104.56283 | 13782 ft | 380 kts | 88° |
| 2026-05-04 23:19 | 1.33439 | 104.58928 | 14101 ft | 382 kts | 88° |
| 2026-05-04 23:19 | 1.33504 | 104.61587 | 14411 ft | 384 kts | 88° |
| 2026-05-04 23:20 | 1.33568 | 104.64228 | 14728 ft | 385 kts | 88° |
| 2026-05-04 23:20 | 1.33633 | 104.66912 | 15051 ft | 387 kts | 88° |
| 2026-05-04 23:20 | 1.33697 | 104.69608 | 15379 ft | 389 kts | 89° |
| 2026-05-04 23:20 | 1.33762 | 104.72316 | 15706 ft | 391 kts | 89° |
| 2026-05-04 23:21 | 1.33827 | 104.75036 | 16029 ft | 392 kts | 89° |